Time;durP1;ratioP1;P1;durP2;ratioP2;P2;SDS_P1;SDS_P2;PMS_P1;PMS_P2;Temp;Humidity;BMP_temperature;BMP_pressure;BME280_temperature;BME280_humidity;BME280_pressure;Samples;Min_cycle;Max_cycle;Signal;HPM_P1;HPM_P2
2022/09/10 00:00:58;;;;;;;2.85;1.60;;;;;;;17.69;73.63;99720.28;5077684;28;20369;-86
2022/09/10 00:03:25;;;;;;;4.25;1.65;;;;;;;17.70;72.98;99719.25;5072060;28;20048;-86
2022/09/10 00:05:52;;;;;;;7.78;1.70;;;;;;;17.68;73.36;99721.28;5049239;28;20154;-86
2022/09/10 00:08:19;;;;;;;5.95;1.80;;;;;;;17.60;73.54;99718.69;5066411;28;20033;-86
2022/09/10 00:10:48;;;;;;;2.80;1.50;;;;;;;17.52;73.75;99720.44;5035633;28;20068;-86
2022/09/10 00:13:18;;;;;;;5.80;1.67;;;;;;;17.55;73.41;99716.56;5070742;28;20089;-86
2022/09/10 00:15:52;;;;;;;2.55;1.27;;;;;;;17.45;73.92;99710.63;5041120;28;20044;-86
2022/09/10 00:18:21;;;;;;;2.17;1.30;;;;;;;17.64;73.19;99711.97;5027136;28;20040;-86
2022/09/10 00:20:50;;;;;;;8.95;1.70;;;;;;;17.61;73.36;99709.66;5085083;28;20103;-86
2022/09/10 00:23:22;;;;;;;9.52;1.60;;;;;;;17.58;73.92;99708.16;5064671;28;20051;-86
2022/09/10 00:25:51;;;;;;;5.28;1.52;;;;;;;17.53;73.89;99708.72;5051132;28;20635;-86
2022/09/10 00:28:18;;;;;;;9.25;1.88;;;;;;;17.60;73.71;99698.06;5054064;28;20136;-86
2022/09/10 00:30:48;;;;;;;4.38;1.25;;;;;;;17.56;73.83;99702.13;5094524;28;20047;-85
2022/09/10 00:33:16;;;;;;;1.42;1.33;;;;;;;17.57;73.79;99695.75;5055588;28;20114;-85
2022/09/10 00:35:43;;;;;;;3.60;1.67;;;;;;;17.55;73.80;99695.94;5045401;28;20446;-85
2022/09/10 00:38:11;;;;;;;3.72;1.50;;;;;;;17.50;73.87;99703.72;5062332;28;20553;-85
2022/09/10 00:40:38;;;;;;;4.75;1.63;;;;;;;17.44;74.08;99707.13;5072745;28;20070;-85
2022/09/10 00:43:19;;;;;;;2.20;1.40;;;;;;;17.41;73.85;99701.28;5073762;28;20075;-85
2022/09/10 00:45:53;;;;;;;4.05;1.60;;;;;;;17.39;74.30;99704.16;4997038;28;20498;-86
2022/09/10 00:48:30;;;;;;;3.42;1.35;;;;;;;17.41;74.07;99702.13;5031059;28;20130;-86
2022/09/10 00:50:58;;;;;;;4.13;1.60;;;;;;;17.57;73.89;99699.25;5042314;28;20094;-85
2022/09/10 00:53:27;;;;;;;5.07;1.42;;;;;;;17.56;73.41;99707.50;5045645;28;20567;-85
2022/09/10 00:55:57;;;;;;;3.60;1.55;;;;;;;17.58;73.65;99713.53;5046476;28;20384;-85
2022/09/10 00:58:24;;;;;;;2.75;1.15;;;;;;;17.51;73.92;99710.75;5062374;28;20522;-86
2022/09/10 01:00:54;;;;;;;2.47;1.35;;;;;;;17.45;73.93;99708.78;5027829;28;20561;-86
2022/09/10 01:03:20;;;;;;;5.43;1.40;;;;;;;17.52;74.15;99701.66;5088325;28;20071;-86
2022/09/10 01:06:21;;;;;;;6.70;1.27;;;;;;;17.20;75.20;99702.84;5056367;28;20086;-86
2022/09/10 01:08:48;;;;;;;5.10;1.30;;;;;;;17.48;74.15;99705.75;4987117;28;20036;-86
2022/09/10 01:11:31;;;;;;;3.72;1.40;;;;;;;17.39;74.44;99700.63;5057116;28;20495;-86
2022/09/10 01:14:12;;;;;;;2.90;1.60;;;;;;;17.36;74.72;99705.34;5049512;28;20079;-86
2022/09/10 01:16:41;;;;;;;3.58;1.48;;;;;;;17.56;74.00;99702.97;5044913;28;21121;-86
2022/09/10 01:19:36;;;;;;;4.43;1.48;;;;;;;17.47;74.56;99704.06;5053126;28;20127;-86
2022/09/10 01:22:17;;;;;;;6.88;2.10;;;;;;;17.59;74.03;99701.75;5030770;28;20131;-86
2022/09/10 01:24:55;;;;;;;8.88;1.83;;;;;;;17.46;74.62;99704.25;5034625;28;20506;-86
2022/09/10 01:27:46;;;;;;;5.85;1.60;;;;;;;17.50;74.33;99706.41;5033466;28;20044;-88
2022/09/10 01:30:33;;;;;;;7.55;1.45;;;;;;;17.35;74.96;99710.88;5026679;28;20407;-88
2022/09/10 01:33:12;;;;;;;9.15;1.42;;;;;;;17.46;75.13;99705.09;5042630;28;20056;-88
2022/09/10 01:35:45;;;;;;;5.45;1.85;;;;;;;17.52;74.45;99700.81;5074788;28;20044;-87
2022/09/10 01:38:16;;;;;;;6.30;1.58;;;;;;;17.52;74.38;99698.97;5057491;28;20052;-85
2022/09/10 01:40:43;;;;;;;2.53;1.35;;;;;;;17.61;74.14;99694.38;5037950;28;20446;-87
2022/09/10 01:48:56;;;;;;;5.70;1.58;;;;;;;17.36;74.92;99694.63;5070021;28;20056;-86
2022/09/10 01:51:41;;;;;;;3.70;1.45;;;;;;;17.39;74.76;99696.09;4998092;28;20464;-88
2022/09/10 01:54:35;;;;;;;7.20;1.35;;;;;;;17.31;74.61;99697.00;5038960;28;20393;-88
2022/09/10 01:57:18;;;;;;;3.30;1.25;;;;;;;17.48;74.74;99702.22;5036801;28;20460;-88
2022/09/10 02:04:13;;;;;;;5.78;1.50;;;;;;;17.46;74.31;99688.97;5057197;28;20059;-88
2022/09/10 02:06:43;;;;;;;4.32;1.35;;;;;;;17.48;74.35;99688.81;5043924;28;20094;-87
2022/09/10 02:09:12;;;;;;;2.20;1.50;;;;;;;17.52;74.12;99698.97;5063367;28;20048;-89
2022/09/10 02:11:51;;;;;;;3.70;1.40;;;;;;;17.33;74.91;99692.31;5050473;28;20097;-87
2022/09/10 02:14:49;;;;;;;4.18;1.38;;;;;;;17.43;74.07;99686.69;5021544;28;20072;-87
2022/09/10 02:17:34;;;;;;;3.55;1.73;;;;;;;17.45;74.18;99695.34;5017268;28;20048;-88
2022/09/10 02:20:03;;;;;;;6.15;1.42;;;;;;;17.48;74.06;99694.19;5065098;28;20402;-88
2022/09/10 02:22:35;;;;;;;2.35;1.20;;;;;;;17.42;74.45;99697.59;5043423;28;20483;-87
2022/09/10 02:25:02;;;;;;;3.22;1.38;;;;;;;17.47;74.38;99695.19;5065324;28;20122;-88
2022/09/10 02:27:29;;;;;;;5.78;1.40;;;;;;;17.42;74.96;99700.25;5026705;28;20045;-89
2022/09/10 02:29:56;;;;;;;3.75;1.40;;;;;;;17.48;74.46;99696.88;5065550;28;20048;-88
2022/09/10 02:32:24;;;;;;;3.13;1.30;;;;;;;17.43;74.34;99700.09;5050878;28;20049;-89
2022/09/10 02:34:51;;;;;;;9.35;1.70;;;;;;;17.48;74.70;99696.88;5070653;28;20102;-90
2022/09/10 02:37:19;;;;;;;8.48;1.60;;;;;;;17.49;74.51;99696.66;5055747;28;20040;-89
2022/09/10 02:40:17;;;;;;;7.82;1.65;;;;;;;17.23;75.83;99690.91;5072057;28;20458;-90
2022/09/10 02:42:45;;;;;;;6.88;1.20;;;;;;;17.39;75.05;99688.03;5005583;28;20060;-90
2022/09/10 02:45:16;;;;;;;7.87;1.10;;;;;;;17.36;75.40;99678.50;5049590;28;20063;-90
2022/09/10 02:47:43;;;;;;;1.67;1.23;;;;;;;17.40;74.92;99688.88;5044593;28;20093;-90
2022/09/10 02:50:10;;;;;;;4.30;1.25;;;;;;;17.35;75.19;99684.03;5048951;28;20044;-89
2022/09/10 02:52:38;;;;;;;7.95;1.50;;;;;;;17.38;75.08;99682.84;5064479;28;20071;-89
2022/09/10 02:55:07;;;;;;;6.07;1.23;;;;;;;17.35;75.03;99684.03;5059458;28;20044;-89
2022/09/10 02:57:34;;;;;;;3.78;1.42;;;;;;;17.31;75.14;99683.59;5037692;28;20059;-88
2022/09/10 03:04:34;;;;;;;6.22;1.65;;;;;;;17.28;75.47;99686.66;5034078;28;20032;-90
2022/09/10 03:07:01;;;;;;;2.55;1.30;;;;;;;17.29;75.65;99684.78;5062227;28;20051;-90
2022/09/10 03:09:28;;;;;;;3.38;1.10;;;;;;;17.33;75.42;99681.56;5044019;28;20044;-91
2022/09/10 03:11:55;;;;;;;4.47;1.70;;;;;;;17.34;75.13;99679.72;5058509;28;20427;-91
2022/09/10 03:14:23;;;;;;;8.35;1.58;;;;;;;17.36;75.59;99677.69;5050209;28;20044;-91
2022/09/10 03:16:50;;;;;;;3.38;1.52;;;;;;;17.35;75.32;99676.00;5047027;28;20483;-89
2022/09/10 03:19:17;;;;;;;4.45;1.40;;;;;;;17.34;75.49;99664.44;5030431;28;20064;-90
2022/09/10 03:21:46;;;;;;;4.00;1.30;;;;;;;17.33;75.74;99664.63;5076255;28;20408;-91
2022/09/10 03:24:13;;;;;;;2.78;1.20;;;;;;;17.40;75.36;99668.22;5048887;28;20076;-91
2022/09/10 03:26:43;;;;;;;5.65;1.33;;;;;;;17.37;75.65;99668.59;5038106;28;20476;-91
2022/09/10 03:29:10;;;;;;;6.22;1.10;;;;;;;17.30;76.08;99665.84;5056833;28;20483;-91
2022/09/10 03:31:39;;;;;;;2.70;1.10;;;;;;;17.32;75.88;99663.78;5063676;28;20079;-91
2022/09/10 03:34:59;;;;;;;2.20;0.93;;;;;;;17.08;76.18;99659.50;5032329;28;20588;-87
2022/09/10 03:41:47;;;;;;;3.55;1.10;;;;;;;17.15;76.64;99667.66;4981090;28;20036;-91
2022/09/10 03:44:15;;;;;;;3.53;1.10;;;;;;;17.19;76.84;99662.75;4984359;28;20049;-91
2022/09/10 03:46:42;;;;;;;4.30;1.27;;;;;;;17.21;76.57;99666.09;5004768;28;20057;-89
2022/09/10 03:49:09;;;;;;;1.73;1.10;;;;;;;17.27;76.41;99666.19;5009923;28;20046;-90
2022/09/10 03:51:36;;;;;;;5.18;1.20;;;;;;;17.24;76.29;99671.91;4970279;28;20046;-90
2022/09/10 03:58:39;;;;;;;7.43;1.20;;;;;;;17.23;76.56;99678.31;4989444;28;20146;-90
2022/09/10 04:01:08;;;;;;;3.33;1.30;;;;;;;17.21;77.06;99676.81;4989019;28;20057;-87
2022/09/10 04:03:37;;;;;;;5.57;1.52;;;;;;;17.20;77.11;99672.47;4996709;28;20050;-89
2022/09/10 04:06:04;;;;;;;2.05;1.40;;;;;;;17.27;76.93;99679.59;4983981;28;20048;-90
2022/09/10 04:08:32;;;;;;;0.98;0.88;;;;;;;17.29;76.26;99674.06;4985249;28;20051;-90
2022/09/10 04:15:07;;;;;;;3.25;1.13;;;;;;;17.27;76.68;99666.19;5011046;28;20035;-88
2022/09/10 04:17:33;;;;;;;2.85;1.10;;;;;;;17.26;76.33;99672.56;5066007;28;20388;-90
2022/09/10 04:20:00;;;;;;;4.47;1.88;;;;;;;17.27;76.77;99673.41;5045980;28;20044;-89
2022/09/10 04:22:27;;;;;;;6.22;2.25;;;;;;;17.31;76.17;99675.53;5087725;28;20056;-90
2022/09/10 04:25:51;;;;;;;5.65;2.05;;;;;;;17.13;76.76;99683.09;5047367;28;20399;-90
2022/09/10 04:28:18;;;;;;;7.30;2.05;;;;;;;17.30;76.45;99679.25;4969358;28;20483;-89
2022/09/10 04:30:47;;;;;;;3.05;1.63;;;;;;;17.28;76.52;99683.13;5061547;28;20205;-89
2022/09/10 04:33:14;;;;;;;2.30;1.70;;;;;;;17.31;76.48;99680.91;5047131;28;20086;-89
2022/09/10 04:35:42;;;;;;;3.70;1.38;;;;;;;17.32;76.10;99692.47;5024276;28;20048;-89
2022/09/10 04:38:10;;;;;;;4.45;1.50;;;;;;;17.31;76.46;99685.44;5055768;28;20051;-90
2022/09/10 04:40:38;;;;;;;2.60;1.48;;;;;;;17.30;76.80;99686.44;5052250;28;20072;-87
2022/09/10 04:43:07;;;;;;;2.22;1.23;;;;;;;17.25;76.77;99687.03;5047532;28;20515;-90
2022/09/10 04:45:38;;;;;;;4.80;1.25;;;;;;;17.27;76.76;99692.19;5063204;28;20044;-89
2022/09/10 04:48:04;;;;;;;6.97;1.50;;;;;;;17.25;76.84;99691.53;5047510;28;20133;-90
2022/09/10 04:50:34;;;;;;;3.92;1.30;;;;;;;17.28;76.49;99696.56;5066236;28;20052;-89
2022/09/10 04:53:14;;;;;;;5.75;1.67;;;;;;;17.31;76.60;99698.88;5008974;28;20048;-89
2022/09/10 04:55:43;;;;;;;2.90;1.17;;;;;;;17.30;76.72;99694.50;5038204;28;20098;-89
2022/09/10 04:58:10;;;;;;;4.38;1.30;;;;;;;17.27;76.79;99698.38;5044124;28;20056;-89
2022/09/10 05:00:38;;;;;;;9.07;1.35;;;;;;;17.31;76.98;99696.19;5054925;28;20052;-89
2022/09/10 05:03:30;;;;;;;3.33;1.50;;;;;;;17.04;78.38;99711.84;5069566;28;20105;-90
2022/09/10 05:05:58;;;;;;;4.25;1.20;;;;;;;17.25;77.45;99705.81;5025543;28;20040;-90
2022/09/10 05:08:24;;;;;;;2.60;1.30;;;;;;;17.24;77.96;99705.97;5045318;28;20044;-90
2022/09/10 05:10:55;;;;;;;2.53;1.40;;;;;;;17.27;77.43;99706.44;5055176;28;20048;-91
2022/09/10 05:13:23;;;;;;;3.85;1.40;;;;;;;17.24;77.96;99708.66;5038014;28;20045;-91
2022/09/10 05:15:49;;;;;;;4.47;1.80;;;;;;;17.28;77.68;99700.06;5073754;28;20044;-88
2022/09/10 05:18:17;;;;;;;7.00;1.60;;;;;;;17.25;77.99;99710.31;5060949;28;20579;-89
2022/09/10 05:21:34;;;;;;;2.90;1.50;;;;;;;17.08;79.24;99710.47;5080720;28;20052;-88
2022/09/10 05:24:01;;;;;;;3.00;1.40;;;;;;;17.27;78.11;99706.44;4988920;28;20048;-88
2022/09/10 05:26:28;;;;;;;5.05;2.15;;;;;;;17.27;77.95;99714.47;5075304;28;20040;-88
2022/09/10 05:28:58;;;;;;;6.82;1.20;;;;;;;17.30;77.57;99705.22;5068933;28;20467;-87
2022/09/10 05:31:26;;;;;;;5.80;1.63;;;;;;;17.28;77.95;99709.97;5046644;28;20071;-85
2022/09/10 05:33:54;;;;;;;6.22;1.75;;;;;;;17.25;77.85;99721.03;5052638;28;20127;-89
2022/09/10 05:36:21;;;;;;;5.90;1.67;;;;;;;17.27;77.91;99714.47;5070374;28;20097;-88
2022/09/10 05:38:48;;;;;;;6.80;1.48;;;;;;;17.24;77.85;99716.72;5076181;28;20048;-87
2022/09/10 05:41:15;;;;;;;1.88;1.20;;;;;;;17.25;78.17;99726.41;5051827;28;20124;-89
2022/09/10 05:43:45;;;;;;;3.88;1.58;;;;;;;17.26;78.47;99723.56;5028238;28;20372;-88
2022/09/10 05:46:12;;;;;;;3.78;1.50;;;;;;;17.30;78.41;99724.03;5053790;28;20040;-88
2022/09/10 05:48:47;;;;;;;7.10;1.77;;;;;;;17.26;78.60;99722.72;4971025;28;20077;-88
2022/09/10 05:51:26;;;;;;;5.75;1.60;;;;;;;17.32;78.34;99722.81;4924425;28;20046;-90
2022/09/10 05:53:55;;;;;;;6.28;1.52;;;;;;;17.33;78.31;99729.88;4966405;28;20073;-88
2022/09/10 05:56:24;;;;;;;4.90;2.05;;;;;;;17.35;78.03;99714.44;4981637;28;20062;-88
2022/09/10 05:58:51;;;;;;;5.18;1.52;;;;;;;17.34;78.53;99720.78;4997075;28;20158;-87
2022/09/10 06:01:18;;;;;;;1.60;1.27;;;;;;;17.42;78.13;99719.06;4982383;28;20043;-86
2022/09/10 06:03:45;;;;;;;2.72;1.73;;;;;;;17.39;78.32;99720.25;4995710;28;20038;-86
2022/09/10 06:06:14;;;;;;;5.22;1.60;;;;;;;17.38;78.84;99723.09;5006228;28;20042;-86
2022/09/10 06:08:52;;;;;;;3.05;1.38;;;;;;;17.32;78.93;99720.13;4995767;28;20053;-87
2022/09/10 06:11:26;;;;;;;5.93;1.60;;;;;;;17.45;77.93;99719.50;4938273;28;20057;-86
2022/09/10 06:13:54;;;;;;;5.57;1.58;;;;;;;17.43;78.41;99721.56;4983205;28;20564;-87
2022/09/10 06:16:20;;;;;;;5.47;1.52;;;;;;;17.43;78.87;99728.75;4995308;28;20438;-87
2022/09/10 06:18:48;;;;;;;3.50;1.30;;;;;;;17.42;78.57;99735.16;4973770;28;20157;-87
2022/09/10 06:21:19;;;;;;;7.57;1.70;;;;;;;17.44;78.31;99723.22;5002617;28;20097;-87
2022/09/10 06:23:52;;;;;;;7.25;1.65;;;;;;;17.39;78.93;99735.53;5066659;28;20396;-87
2022/09/10 06:26:20;;;;;;;7.13;1.83;;;;;;;17.45;78.76;99740.97;5054916;28;20056;-87
2022/09/10 06:28:51;;;;;;;5.50;1.90;;;;;;;17.44;79.23;99747.38;5058341;28;20052;-88
2022/09/10 06:31:18;;;;;;;4.25;1.40;;;;;;;17.50;78.86;99740.44;5058276;28;20044;-88
2022/09/10 06:33:47;;;;;;;6.00;1.70;;;;;;;17.48;78.94;99735.28;5080022;28;20051;-85
2022/09/10 06:36:19;;;;;;;10.35;1.80;;;;;;;17.43;79.46;99742.19;5057796;28;20048;-86
2022/09/10 06:38:48;;;;;;;6.85;1.70;;;;;;;17.43;79.13;99743.03;5073895;28;20058;-87
2022/09/10 06:41:16;;;;;;;5.05;1.50;;;;;;;17.47;79.13;99727.41;5063832;28;20052;-85
2022/09/10 06:43:49;;;;;;;2.22;1.80;;;;;;;17.46;78.76;99748.03;5025360;28;20048;-87
2022/09/10 06:46:33;;;;;;;4.07;1.63;;;;;;;17.44;79.08;99749.25;5066626;28;20124;-86
2022/09/10 06:49:22;;;;;;;7.07;1.95;;;;;;;17.44;78.86;99736.66;5046392;28;20044;-86
2022/09/10 06:51:49;;;;;;;8.90;2.03;;;;;;;17.49;78.71;99746.84;5088790;28;20040;-87
2022/09/10 06:54:17;;;;;;;5.88;2.05;;;;;;;17.49;79.17;99744.16;5059737;28;20051;-83
2022/09/10 06:56:47;;;;;;;6.65;1.80;;;;;;;17.47;79.53;99744.31;5074931;28;20048;-85
2022/09/10 06:59:17;;;;;;;4.10;1.70;;;;;;;17.52;79.33;99739.25;5064032;28;20059;-87
2022/09/10 07:01:46;;;;;;;8.20;2.40;;;;;;;17.55;79.11;99746.97;5025970;28;20049;-88
2022/09/10 07:04:14;;;;;;;5.35;1.95;;;;;;;17.55;79.35;99755.00;5064608;28;20407;-88
2022/09/10 07:06:42;;;;;;;7.78;1.92;;;;;;;17.52;79.74;99747.28;5072095;28;20553;-87
2022/09/10 07:09:12;;;;;;;5.60;1.98;;;;;;;17.55;79.51;99760.38;5073909;28;20055;-87
2022/09/10 07:11:47;;;;;;;4.85;2.00;;;;;;;17.53;79.52;99757.03;5056789;28;20050;-87
2022/09/10 07:14:16;;;;;;;9.77;2.28;;;;;;;17.60;78.91;99753.59;5072710;28;20049;-87
2022/09/10 07:16:45;;;;;;;6.85;2.10;;;;;;;17.57;79.07;99758.31;5081075;28;20039;-87
2022/09/10 07:19:13;;;;;;;7.72;1.85;;;;;;;17.60;78.42;99754.44;5056080;28;21105;-87
2022/09/10 07:21:44;;;;;;;6.93;2.13;;;;;;;17.56;78.38;99762.03;5038368;28;20060;-87
2022/09/10 07:24:14;;;;;;;8.20;1.85;;;;;;;17.51;78.80;99769.81;5037395;28;20040;-87
2022/09/10 07:27:03;;;;;;;5.45;1.98;;;;;;;17.50;77.77;99767.28;5043940;28;20060;-87
2022/09/10 07:29:34;;;;;;;9.27;2.80;;;;;;;17.56;78.19;99767.41;5027213;28;20044;-86
2022/09/10 07:32:03;;;;;;;4.60;1.77;;;;;;;17.60;78.21;99765.19;5074208;28;20051;-86
2022/09/10 07:34:30;;;;;;;11.88;2.40;;;;;;;17.63;78.42;99772.03;5006300;28;20094;-85
2022/09/10 07:36:59;;;;;;;8.32;2.58;;;;;;;17.64;78.73;99774.53;5057789;28;20052;-84
2022/09/10 07:39:27;;;;;;;8.68;2.45;;;;;;;17.64;78.80;99779.91;5037830;28;20902;-84
2022/09/10 07:41:55;;;;;;;3.75;2.15;;;;;;;17.62;78.92;99779.25;5073655;28;20063;-86
2022/09/10 07:44:26;;;;;;;9.70;2.30;;;;;;;17.65;78.67;99784.25;5072475;28;20040;-84
2022/09/10 07:46:56;;;;;;;5.85;2.45;;;;;;;17.66;79.13;99785.94;5057317;28;20047;-84
2022/09/10 07:49:26;;;;;;;8.18;2.25;;;;;;;17.68;78.42;99791.97;5057997;28;20059;-85
2022/09/10 07:51:54;;;;;;;5.07;2.53;;;;;;;17.72;78.15;99785.19;5044298;28;20068;-84
2022/09/10 07:54:30;;;;;;;9.88;3.10;;;;;;;17.69;78.21;99787.44;5053751;28;20041;-86
2022/09/10 07:56:58;;;;;;;5.80;3.08;;;;;;;17.68;78.19;99785.75;5074104;28;20093;-81
2022/09/10 07:59:30;;;;;;;15.63;2.60;;;;;;;17.64;78.55;99787.16;5055056;28;20059;-82
2022/09/10 08:02:57;;;;;;;14.13;3.58;;;;;;;17.60;78.97;99785.84;5076793;28;20052;-82
2022/09/10 08:05:27;;;;;;;17.33;3.77;;;;;;;17.78;78.46;99792.53;4987027;28;20056;-81
2022/09/10 08:07:56;;;;;;;11.02;2.55;;;;;;;17.91;77.80;99789.25;5061203;28;20044;-82
2022/09/10 08:10:27;;;;;;;11.25;2.90;;;;;;;17.96;77.62;99784.16;5070223;28;20550;-82
2022/09/10 08:12:57;;;;;;;14.82;2.67;;;;;;;18.03;77.10;99786.09;5060203;28;20050;-82
2022/09/10 08:15:25;;;;;;;6.38;2.35;;;;;;;18.07;77.02;99793.59;5053797;28;20048;-81
2022/09/10 08:17:54;;;;;;;15.20;2.80;;;;;;;18.11;76.57;99786.81;5069864;28;20045;-82
2022/09/10 08:20:24;;;;;;;5.10;2.20;;;;;;;18.11;76.94;99792.19;5061242;28;20136;-80
2022/09/10 08:22:51;;;;;;;4.95;2.10;;;;;;;18.15;76.24;99795.38;5053749;28;20071;-80
2022/09/10 08:25:19;;;;;;;8.63;2.53;;;;;;;18.10;76.64;99793.22;5057001;28;20122;-80
2022/09/10 08:27:46;;;;;;;10.50;2.80;;;;;;;18.11;76.15;99791.38;5072821;28;20437;-82
2022/09/10 08:30:13;;;;;;;9.88;2.42;;;;;;;18.12;76.06;99798.44;5073996;28;20388;-81
2022/09/10 08:32:41;;;;;;;6.18;2.92;;;;;;;18.10;75.76;99798.59;5054864;28;20051;-81
2022/09/10 08:35:08;;;;;;;8.52;2.75;;;;;;;18.14;75.59;99801.72;5075373;28;20044;-82
2022/09/10 08:37:36;;;;;;;7.80;3.15;;;;;;;18.20;75.56;99806.38;5066767;28;20817;-81
2022/09/10 08:40:12;;;;;;;12.30;2.67;;;;;;;18.20;75.30;99809.91;5049054;28;20492;-82
2022/09/10 08:42:48;;;;;;;10.38;2.70;;;;;;;18.19;75.58;99802.88;5028956;28;20040;-82
2022/09/10 08:45:22;;;;;;;7.10;3.17;;;;;;;18.21;75.26;99806.19;5030101;28;20044;-82
2022/09/10 08:47:57;;;;;;;13.18;2.85;;;;;;;18.24;75.28;99799.59;5030870;28;20661;-82
2022/09/10 08:50:45;;;;;;;10.38;2.85;;;;;;;18.29;75.09;99807.09;5074289;28;20047;-82
2022/09/10 08:53:24;;;;;;;10.10;3.22;;;;;;;18.30;74.80;99801.56;5024609;28;20044;-82
2022/09/10 08:56:08;;;;;;;11.27;3.22;;;;;;;18.28;74.55;99806.28;5037095;28;20124;-84
2022/09/10 08:58:47;;;;;;;10.73;3.15;;;;;;;18.32;74.92;99810.28;5059595;28;20059;-83
2022/09/10 09:01:20;;;;;;;14.48;3.22;;;;;;;18.37;74.98;99813.25;5024208;28;20048;-83
2022/09/10 09:03:54;;;;;;;13.15;3.10;;;;;;;18.33;75.03;99813.78;5026831;28;20094;-82
2022/09/10 09:07:14;;;;;;;14.00;2.97;;;;;;;18.25;74.32;99814.72;5058490;28;20105;-83
2022/09/10 09:09:43;;;;;;;14.02;3.20;;;;;;;18.35;74.58;99819.81;4974586;28;20425;-84
2022/09/10 09:12:53;;;;;;;11.52;3.28;;;;;;;18.25;73.82;99813.91;5021916;28;20040;-83
2022/09/10 09:15:26;;;;;;;9.15;2.90;;;;;;;18.33;74.17;99822.69;4988980;28;20052;-83
2022/09/10 09:19:00;;;;;;;12.85;3.63;;;;;;;18.26;74.93;99811.00;5038700;28;20052;-83
2022/09/10 09:21:28;;;;;;;10.65;3.00;;;;;;;18.42;74.61;99820.75;4935925;28;20089;-84
2022/09/10 09:23:56;;;;;;;6.57;2.35;;;;;;;18.48;74.18;99825.38;5035376;28;20124;-83
2022/09/10 09:26:46;;;;;;;7.28;3.05;;;;;;;18.54;74.41;99815.72;5007014;28;20510;-82
2022/09/10 09:29:24;;;;;;;9.27;3.30;;;;;;;18.57;73.78;99818.00;5072966;28;20058;-83
2022/09/10 09:31:56;;;;;;;12.02;3.03;;;;;;;18.64;73.99;99814.38;5049784;28;20068;-82
2022/09/10 09:34:38;;;;;;;14.13;3.20;;;;;;;18.58;73.81;99825.91;5075215;28;20384;-82
2022/09/10 09:37:14;;;;;;;;;;;;;;;18.46;72.98;99816.66;5029942;28;20048;-84
2022/09/10 09:39:44;;;;;;;9.50;2.53;;;;;;;18.66;72.78;99815.03;5011550;28;19920;-84
2022/09/10 09:42:22;;;;;;;8.35;2.22;;;;;;;18.60;71.93;99814.97;5061026;28;20527;-84
2022/09/10 09:44:50;;;;;;;13.10;2.85;;;;;;;18.63;71.95;99809.22;5049761;28;20404;-83
2022/09/10 09:47:22;;;;;;;5.60;2.20;;;;;;;18.60;71.80;99817.66;5009309;28;20098;-83
2022/09/10 09:49:50;;;;;;;6.18;2.22;;;;;;;18.60;71.37;99823.88;5054989;28;20040;-83
2022/09/10 09:52:21;;;;;;;10.85;3.13;;;;;;;18.58;70.83;99819.69;5071811;28;20502;-82
2022/09/10 09:54:51;;;;;;;11.75;2.83;;;;;;;18.61;71.38;99820.16;5089939;28;20047;-83
2022/09/10 09:57:41;;;;;;;10.32;2.88;;;;;;;18.64;71.69;99814.38;5034052;28;20520;-84
2022/09/10 10:00:35;;;;;;;7.78;2.50;;;;;;;18.57;71.17;99812.63;5056614;28;20040;-84
2022/09/10 10:03:23;;;;;;;12.63;2.65;;;;;;;18.61;71.18;99811.25;4968413;28;20044;-84
2022/09/10 10:05:50;;;;;;;6.78;2.20;;;;;;;18.70;71.73;99812.81;5049564;28;20067;-81
2022/09/10 10:08:41;;;;;;;11.55;2.78;;;;;;;18.56;70.11;99798.38;5048923;28;21072;-82
2022/09/10 10:11:10;;;;;;;9.07;2.45;;;;;;;18.74;70.92;99807.88;4991467;28;20041;-82
2022/09/10 10:13:40;;;;;;;4.97;2.08;;;;;;;18.78;70.71;99799.28;5060424;28;20060;-83
2022/09/10 10:16:13;;;;;;;5.32;2.30;;;;;;;18.79;70.39;99800.94;5089198;28;20101;-83
2022/09/10 10:18:41;;;;;;;6.88;2.00;;;;;;;18.86;70.42;99795.63;5080665;28;20044;-83
2022/09/10 10:21:15;;;;;;;5.40;2.13;;;;;;;18.86;70.21;99799.16;5049702;28;20094;-82
2022/09/10 10:23:42;;;;;;;7.95;2.33;;;;;;;18.96;69.89;99787.25;5030188;28;20048;-82
2022/09/10 10:26:20;;;;;;;7.75;2.28;;;;;;;18.91;68.68;99784.31;5039639;28;20054;-82
2022/09/10 10:28:49;;;;;;;4.78;2.38;;;;;;;19.02;68.30;99781.94;5038339;28;20071;-82
2022/09/10 10:31:16;;;;;;;9.32;3.65;;;;;;;19.03;68.27;99789.00;5048181;28;20078;-85
2022/09/10 10:34:22;;;;;;;10.77;2.75;;;;;;;18.91;67.64;99785.13;5065199;28;20047;-81
2022/09/10 10:37:01;;;;;;;7.82;2.95;;;;;;;18.91;67.51;99784.31;5008627;28;20039;-81
2022/09/10 10:40:02;;;;;;;7.55;2.55;;;;;;;18.91;67.37;99787.00;5014699;28;20548;-81
2022/09/10 10:42:38;;;;;;;10.85;2.42;;;;;;;19.02;67.74;99778.41;5033286;28;20090;-82
2022/09/10 10:45:07;;;;;;;21.42;10.45;;;;;;;19.08;69.23;99777.63;5055656;28;20044;-82
2022/09/10 10:47:50;;;;;;;6.57;2.90;;;;;;;19.04;67.84;99773.69;5047072;28;20388;-80
2022/09/10 10:50:25;;;;;;;7.95;2.83;;;;;;;19.02;67.48;99773.84;5032758;28;20072;-82
2022/09/10 10:53:17;;;;;;;9.40;2.70;;;;;;;18.94;68.18;99779.38;5013266;28;20093;-82
2022/09/10 10:55:56;;;;;;;10.85;3.20;;;;;;;18.89;67.80;99778.28;5030932;28;20040;-80
2022/09/10 10:58:35;;;;;;;7.90;2.30;;;;;;;18.78;67.51;99782.31;5054729;28;20040;-81
2022/09/10 11:01:20;;;;;;;7.10;2.85;;;;;;;18.72;67.13;99781.16;5045672;28;20044;-80
2022/09/10 11:04:08;;;;;;;40.00;3.17;;;;;;;18.74;67.23;99778.28;5037355;28;20395;-80
2022/09/10 11:06:42;;;;;;;6.72;2.50;;;;;;;18.82;67.62;99773.66;5045219;28;20050;-80
2022/09/10 11:09:20;;;;;;;11.90;2.63;;;;;;;18.91;67.16;99778.94;5054500;28;20581;-81
2022/09/10 11:11:57;;;;;;;13.27;2.50;;;;;;;18.94;66.89;99781.22;5068190;28;20119;-80
2022/09/10 11:14:47;;;;;;;8.90;2.58;;;;;;;18.91;66.35;99776.25;5020921;28;20083;-81
2022/09/10 11:17:54;;;;;;;11.07;2.42;;;;;;;18.85;66.51;99772.44;4994937;28;20051;-86
2022/09/10 11:20:52;;;;;;;12.57;2.58;;;;;;;18.80;66.80;99773.03;4985465;28;20042;-86
2022/09/10 11:23:32;;;;;;;9.60;2.30;;;;;;;18.81;67.21;99777.38;5012959;28;20064;-86
2022/09/10 11:26:08;;;;;;;7.47;3.22;;;;;;;18.79;67.39;99782.09;5041217;28;20049;-86
2022/09/10 11:28:42;;;;;;;7.30;2.30;;;;;;;18.78;68.24;99787.69;5076148;28;20049;-85
2022/09/10 11:31:17;;;;;;;11.98;3.22;;;;;;;18.78;68.56;99790.38;5077689;28;20430;-85
2022/09/10 11:33:54;;;;;;;12.20;3.40;;;;;;;18.74;70.86;99783.69;5052622;28;20071;-85
2022/09/10 11:36:40;;;;;;;11.75;3.25;;;;;;;18.74;71.04;99779.13;5060434;28;20036;-85
2022/09/10 11:39:23;;;;;;;9.90;2.45;;;;;;;18.85;70.40;99769.75;5037970;28;20128;-85
2022/09/10 11:41:52;;;;;;;5.07;2.92;;;;;;;18.89;70.01;99770.22;5054358;28;20132;-85
2022/09/10 11:45:08;;;;;;;5.75;2.60;;;;;;;18.86;69.67;99772.25;5067315;28;20139;-85
2022/09/10 11:47:39;;;;;;;12.00;2.80;;;;;;;18.92;69.26;99776.03;5025789;28;20041;-85
2022/09/10 11:50:45;;;;;;;9.98;2.60;;;;;;;19.00;69.39;99764.31;5026267;28;20702;-85
2022/09/10 11:53:15;;;;;;;11.57;3.20;;;;;;;19.08;69.41;99769.56;4994645;28;20087;-86
2022/09/10 11:55:56;;;;;;;7.47;2.50;;;;;;;19.15;68.92;99758.88;4980157;28;20046;-87
2022/09/10 11:58:44;;;;;;;11.30;3.30;;;;;;;19.13;68.36;99759.03;4980147;28;20055;-86
2022/09/10 12:01:25;;;;;;;7.50;2.85;;;;;;;19.21;68.17;99750.00;5058873;28;20550;-87
2022/09/10 12:04:18;;;;;;;16.35;5.05;;;;;;;19.38;69.15;99747.88;5072864;28;20473;-82
2022/09/10 12:06:54;;;;;;;12.90;2.55;;;;;;;19.54;67.57;99742.22;5043343;28;20487;-88
2022/09/10 12:09:43;;;;;;;5.63;1.90;;;;;;;19.46;65.99;99740.50;5078077;28;20056;-88
2022/09/10 12:12:39;;;;;;;6.15;2.45;;;;;;;19.47;67.33;99752.94;5036215;28;20062;-90
2022/09/10 12:15:12;;;;;;;9.00;2.97;;;;;;;19.55;67.92;99749.25;5054838;28;20178;-87
2022/09/10 12:17:40;;;;;;;4.75;1.90;;;;;;;19.56;67.73;99752.78;5073877;28;20050;-87
2022/09/10 12:20:14;;;;;;;7.63;3.10;;;;;;;19.57;67.41;99751.75;5073501;28;20041;-87
2022/09/10 12:22:46;;;;;;;9.38;2.97;;;;;;;19.59;67.44;99750.53;5047434;28;20046;-86
2022/09/10 12:25:24;;;;;;;8.38;2.58;;;;;;;19.55;67.17;99751.94;5002586;28;20050;-85
2022/09/10 12:27:52;;;;;;;7.40;2.85;;;;;;;19.61;67.41;99751.16;5035275;28;20043;-87
2022/09/10 12:30:28;;;;;;;10.18;2.78;;;;;;;19.57;67.41;99743.69;5086120;28;20542;-88
2022/09/10 12:32:59;;;;;;;8.93;2.58;;;;;;;19.57;66.71;99743.69;5010617;28;20484;-86